Time;durP1;ratioP1;P1;durP2;ratioP2;P2;SDS_P1;SDS_P2;PMS_P1;PMS_P2;Temp;Humidity;BMP_temperature;BMP_pressure;BME280_temperature;BME280_humidity;BME280_pressure;Samples;Min_cycle;Max_cycle;Signal;HPM_P1;HPM_P2
2022/11/25 00:33:36;;;;;;;9.00;2.20;;;;;;;10.40;76.11;100813.63;5061332;28;20143;-91
2022/11/25 00:36:04;;;;;;;12.38;2.00;;;;;;;10.38;76.10;100812.81;5062546;28;20087;-91
2022/11/25 00:38:30;;;;;;;12.32;2.42;;;;;;;10.38;75.54;100811.94;5068928;28;20020;-91
2022/11/25 00:46:23;;;;;;;9.25;2.25;;;;;;;10.44;75.70;100814.34;5088626;28;20119;-91
2022/11/25 00:48:48;;;;;;;12.43;2.75;;;;;;;10.50;75.72;100813.25;5071262;28;20130;-90
2022/11/25 00:51:13;;;;;;;11.27;2.38;;;;;;;10.41;75.67;100794.19;5070863;28;20020;-91
2022/11/25 00:53:39;;;;;;;13.68;2.47;;;;;;;10.51;75.72;100809.69;5086887;28;20027;-90
2022/11/25 00:56:14;;;;;;;9.32;1.85;;;;;;;10.53;75.55;100807.81;5072051;28;20028;-90
2022/11/25 00:58:40;;;;;;;12.13;2.28;;;;;;;10.48;75.77;100814.16;5088884;28;20110;-90
2022/11/25 01:01:05;;;;;;;9.82;1.92;;;;;;;10.54;75.45;100817.47;5090610;28;20495;-91
2022/11/25 01:03:31;;;;;;;6.90;2.15;;;;;;;10.55;75.72;100825.38;5089857;28;20031;-90
2022/11/25 01:06:01;;;;;;;8.45;1.85;;;;;;;10.59;75.49;100824.31;5078508;28;20103;-91
2022/11/25 01:08:28;;;;;;;13.77;2.40;;;;;;;10.56;75.27;100823.56;5089733;28;20051;-92
2022/11/25 01:10:58;;;;;;;17.15;2.28;;;;;;;10.53;75.92;100813.97;5090427;28;20024;-91
2022/11/25 01:13:24;;;;;;;11.02;2.42;;;;;;;10.47;76.18;100812.44;5089499;28;20028;-91
2022/11/25 01:15:49;;;;;;;19.08;3.70;;;;;;;10.48;76.16;100810.66;5088059;28;20435;-91
2022/11/25 01:18:14;;;;;;;14.57;2.30;;;;;;;10.52;75.99;100821.97;5068500;28;20035;-91
2022/11/25 01:20:39;;;;;;;12.32;2.00;;;;;;;10.53;76.40;100815.75;5071201;28;20511;-91
2022/11/25 01:23:05;;;;;;;13.13;2.85;;;;;;;10.45;75.72;100810.81;5066498;28;20028;-91
2022/11/25 01:25:30;;;;;;;14.02;3.10;;;;;;;10.51;76.19;100821.13;5064577;28;20049;-92
2022/11/25 01:27:55;;;;;;;12.07;2.78;;;;;;;10.56;76.29;100828.88;5066062;28;20502;-91
2022/11/25 01:30:20;;;;;;;8.30;3.00;;;;;;;10.61;76.01;100814.53;5071164;28;20036;-91
2022/11/25 01:32:46;;;;;;;11.15;2.47;;;;;;;10.60;75.72;100820.75;5066808;28;20031;-91
2022/11/25 01:35:11;;;;;;;15.60;2.92;;;;;;;10.62;76.03;100826.81;5085011;28;20487;-91
2022/11/25 01:37:36;;;;;;;12.27;3.50;;;;;;;10.60;75.66;100819.88;5059423;28;20035;-91
2022/11/25 01:40:02;;;;;;;12.25;2.50;;;;;;;10.60;75.60;100831.31;5070790;28;20028;-90
2022/11/25 01:42:29;;;;;;;12.52;2.03;;;;;;;10.71;75.44;100847.59;5089689;28;20042;-91
2022/11/25 01:45:19;;;;;;;15.05;2.80;;;;;;;10.79;75.41;100841.16;5083318;28;20487;-91
2022/11/25 01:47:45;;;;;;;15.07;2.50;;;;;;;10.72;75.50;100845.81;5086826;28;20109;-91
2022/11/25 01:50:12;;;;;;;14.70;2.55;;;;;;;10.73;75.72;100848.41;5088259;28;20111;-91
2022/11/25 01:52:44;;;;;;;11.38;2.40;;;;;;;10.75;75.36;100850.13;5063386;28;20118;-92
2022/11/25 01:55:14;;;;;;;12.88;2.80;;;;;;;10.75;75.83;100840.41;5082432;28;20023;-91
2022/11/25 01:57:49;;;;;;;11.70;2.72;;;;;;;10.70;75.73;100863.53;5089127;28;20479;-90
2022/11/25 02:00:15;;;;;;;16.20;2.22;;;;;;;10.79;75.74;100865.81;5083149;28;20038;-91
2022/11/25 02:02:40;;;;;;;10.30;2.05;;;;;;;10.79;75.69;100859.66;5070799;28;20023;-92
2022/11/25 02:05:09;;;;;;;13.13;2.22;;;;;;;10.75;75.71;100855.41;5070609;28;20479;-91
2022/11/25 02:07:37;;;;;;;10.57;2.17;;;;;;;10.81;75.95;100877.16;5088614;28;20525;-91
2022/11/25 02:10:07;;;;;;;7.28;1.88;;;;;;;10.84;75.49;100876.19;5070186;28;20024;-91
2022/11/25 02:12:35;;;;;;;7.25;1.98;;;;;;;10.89;75.51;100884.81;5064162;28;20471;-92
2022/11/25 02:15:02;;;;;;;9.07;1.92;;;;;;;10.96;74.94;100881.88;5071091;28;20020;-91
2022/11/25 02:17:27;;;;;;;8.65;1.90;;;;;;;10.94;75.19;100886.34;5070536;28;20024;-91
2022/11/25 02:20:00;;;;;;;11.32;1.85;;;;;;;10.96;75.21;100881.88;5071324;28;20376;-92
2022/11/25 02:22:44;;;;;;;7.85;2.30;;;;;;;11.02;75.22;100891.31;5089226;28;20240;-91
2022/11/25 02:25:13;;;;;;;13.00;2.25;;;;;;;10.94;75.47;100885.47;5055281;28;20036;-92
2022/11/25 02:27:42;;;;;;;7.28;1.75;;;;;;;10.92;75.75;100889.97;5086005;28;20488;-91
2022/11/25 02:30:07;;;;;;;9.63;2.53;;;;;;;10.88;75.82;100883.09;5071392;28;20024;-92
2022/11/25 02:32:33;;;;;;;15.77;2.63;;;;;;;10.93;75.82;100894.34;5085600;28;20472;-92
2022/11/25 02:34:58;;;;;;;8.32;2.20;;;;;;;10.82;76.38;100883.31;5087053;28;20044;-91
2022/11/25 02:37:23;;;;;;;17.50;3.42;;;;;;;10.77;76.07;100895.88;5071191;28;20036;-92
2022/11/25 02:39:50;;;;;;;11.23;2.40;;;;;;;10.72;76.97;100902.22;5087923;28;20495;-92
2022/11/25 02:42:20;;;;;;;10.07;2.38;;;;;;;10.68;77.38;100902.41;5070941;28;20385;-92
2022/11/25 02:44:47;;;;;;;10.98;2.33;;;;;;;10.64;77.56;100912.25;5063460;28;20339;-91
2022/11/25 02:47:12;;;;;;;12.02;2.10;;;;;;;10.54;78.47;100905.59;5085896;28;20675;-92
2022/11/25 02:49:37;;;;;;;9.48;2.00;;;;;;;10.54;78.97;100915.28;5069325;28;20038;-91
2022/11/25 02:52:03;;;;;;;8.77;2.42;;;;;;;10.46;79.01;100912.94;5090695;28;20096;-91
2022/11/25 02:54:28;;;;;;;8.95;2.00;;;;;;;10.40;79.73;100914.06;5084277;28;20028;-91
2022/11/25 02:56:53;;;;;;;13.65;2.42;;;;;;;10.37;80.36;100914.16;5075319;28;20019;-90
2022/11/25 02:59:19;;;;;;;11.80;2.00;;;;;;;10.35;80.24;100900.16;5073916;28;20111;-91
2022/11/25 03:01:44;;;;;;;7.30;1.67;;;;;;;10.29;80.10;100908.31;5092522;28;20047;-91
2022/11/25 03:04:09;;;;;;;12.63;2.22;;;;;;;10.22;81.24;100907.66;5091754;28;20486;-91
2022/11/25 03:06:35;;;;;;;11.65;2.22;;;;;;;10.21;81.85;100890.09;5090262;28;20035;-90
2022/11/25 03:09:01;;;;;;;10.98;2.40;;;;;;;10.12;82.11;100853.44;5087103;28;20510;-91
2022/11/25 03:12:17;;;;;;;7.45;2.17;;;;;;;10.08;81.92;100841.25;5091769;28;20024;-90
2022/11/25 03:14:11;;;;;;;9.10;2.80;;;;;;;10.03;82.65;100840.59;5089186;28;20031;-90
2022/11/25 03:16:36;;;;;;;8.77;2.10;;;;;;;9.94;82.71;100830.38;5086281;28;20043;-89
2022/11/25 03:19:02;;;;;;;5.45;1.90;;;;;;;9.95;82.92;100848.78;5084999;28;20025;-89
2022/11/25 03:21:27;;;;;;;12.70;2.15;;;;;;;9.91;83.05;100847.16;5057492;28;20054;-90
2022/11/25 03:23:53;;;;;;;10.70;2.28;;;;;;;9.92;83.09;100862.09;5088706;28;20086;-89
2022/11/25 03:26:18;;;;;;;5.93;1.75;;;;;;;9.86;82.55;100866.75;5064677;28;20032;-90
2022/11/25 03:28:43;;;;;;;8.23;2.17;;;;;;;9.87;82.54;100865.81;5083492;28;20058;-90
2022/11/25 03:31:09;;;;;;;4.68;1.58;;;;;;;9.85;82.30;100878.25;5068901;28;20028;-90
2022/11/25 03:33:35;;;;;;;5.72;1.50;;;;;;;9.87;82.14;100864.03;5064345;28;20021;-90
2022/11/25 03:36:00;;;;;;;7.82;1.90;;;;;;;9.84;83.31;100861.53;5064849;28;20073;-90
2022/11/25 03:38:25;;;;;;;6.57;1.73;;;;;;;9.85;82.87;100881.75;5085614;28;20075;-90
2022/11/25 03:40:51;;;;;;;5.78;1.30;;;;;;;9.81;82.55;100897.75;5089137;28;20012;-90
2022/11/25 03:43:16;;;;;;;7.00;1.85;;;;;;;9.81;82.82;100914.44;5091564;28;20436;-90
2022/11/25 03:45:41;;;;;;;6.93;1.70;;;;;;;9.79;82.83;100902.19;5061006;28;20032;-90
2022/11/25 03:48:06;;;;;;;6.90;1.67;;;;;;;9.84;82.44;100919.63;5070109;28;20020;-90
2022/11/25 03:50:32;;;;;;;7.38;1.48;;;;;;;9.83;82.55;100924.94;5091942;28;20028;-91
2022/11/25 03:52:57;;;;;;;4.53;1.42;;;;;;;9.83;82.82;100917.88;5079290;28;20103;-90
2022/11/25 03:55:22;;;;;;;7.28;1.80;;;;;;;9.80;82.56;100909.22;5056876;28;20086;-90
2022/11/25 03:57:48;;;;;;;6.03;1.52;;;;;;;9.82;82.40;100915.31;5071812;28;20031;-90
2022/11/25 04:00:13;;;;;;;4.75;1.45;;;;;;;9.77;82.10;100915.47;5073505;28;20024;-90
2022/11/25 04:02:38;;;;;;;3.78;1.40;;;;;;;9.80;82.48;100923.28;5090342;28;20032;-90
2022/11/25 04:05:04;;;;;;;6.93;1.50;;;;;;;9.75;82.46;100929.66;5085336;28;20379;-90
2022/11/25 04:07:29;;;;;;;8.88;1.55;;;;;;;9.64;83.28;100928.22;5068699;28;20032;-90
2022/11/25 04:09:55;;;;;;;5.45;1.40;;;;;;;9.65;83.16;100937.91;5067579;28;20025;-91
2022/11/25 04:15:04;;;;;;;6.20;1.48;;;;;;;9.87;81.36;100937.13;5086826;28;20453;-91
2022/11/25 04:17:29;;;;;;;8.93;1.63;;;;;;;9.59;82.79;100939.88;5089563;28;20020;-91
2022/11/25 04:19:55;;;;;;;3.60;1.02;;;;;;;9.61;83.14;100938.91;5089313;28;20051;-91
2022/11/25 04:22:20;;;;;;;6.18;1.20;;;;;;;9.55;82.65;100938.25;5070545;28;20024;-90
2022/11/25 04:24:45;;;;;;;7.90;2.20;;;;;;;9.56;83.24;100947.88;5072440;28;20024;-90
2022/11/25 04:27:11;;;;;;;2.72;0.90;;;;;;;9.49;82.89;100946.38;5072722;28;20016;-91
2022/11/25 04:29:36;;;;;;;4.35;0.98;;;;;;;9.54;82.20;100949.72;5085653;28;20742;-91
2022/11/25 04:32:01;;;;;;;4.40;1.45;;;;;;;9.45;82.18;100959.66;5069239;28;20034;-91
2022/11/25 04:34:26;;;;;;;5.00;1.27;;;;;;;9.32;82.89;100965.41;5085829;28;20056;-91
2022/11/25 04:36:52;;;;;;;4.25;1.98;;;;;;;9.36;82.76;100974.94;5082275;28;20547;-91
2022/11/25 04:39:17;;;;;;;2.47;0.80;;;;;;;9.30;82.62;100976.03;5083751;28;20035;-91
2022/11/25 04:41:42;;;;;;;7.57;1.35;;;;;;;9.22;83.06;100985.94;5068982;28;20058;-91
2022/11/25 04:44:08;;;;;;;8.07;1.30;;;;;;;9.22;83.11;100982.44;5088390;28;20024;-90
2022/11/25 04:46:38;;;;;;;6.57;1.00;;;;;;;9.19;83.00;101000.13;5090746;28;20036;-91
2022/11/25 04:49:04;;;;;;;5.00;1.33;;;;;;;9.25;83.34;101008.75;5069167;28;20123;-91
2022/11/25 04:51:30;;;;;;;7.75;1.00;;;;;;;9.25;83.15;100998.19;5071606;28;20107;-91
2022/11/25 04:53:55;;;;;;;5.57;1.40;;;;;;;9.17;83.46;100991.38;5071080;28;20027;-91
2022/11/25 04:56:21;;;;;;;4.22;1.00;;;;;;;9.20;83.46;100996.56;5079828;28;20023;-91
2022/11/25 05:01:30;;;;;;;4.07;1.50;;;;;;;9.15;83.37;100987.06;5088813;28;20473;-92
2022/11/25 05:03:55;;;;;;;4.03;1.13;;;;;;;9.15;83.59;100987.94;5069653;28;20024;-91
2022/11/25 05:06:21;;;;;;;4.32;1.50;;;;;;;9.10;83.79;100994.28;5087923;28;20035;-92
2022/11/25 05:08:48;;;;;;;5.95;1.70;;;;;;;9.08;84.02;100999.56;5083418;28;20063;-90
2022/11/25 05:11:14;;;;;;;4.65;1.40;;;;;;;9.13;83.58;101005.56;5085641;28;20027;-91
2022/11/25 05:13:39;;;;;;;3.65;1.13;;;;;;;9.20;83.81;101022.09;5066608;28;20027;-91
2022/11/25 05:16:05;;;;;;;3.13;0.98;;;;;;;9.10;83.74;101010.09;5086902;28;20036;-91
2022/11/25 05:18:30;;;;;;;5.00;1.38;;;;;;;9.11;83.94;101023.22;5087672;28;20055;-91
2022/11/25 05:21:01;;;;;;;4.93;1.20;;;;;;;9.10;83.49;101026.78;5072652;28;20693;-91
2022/11/25 05:23:26;;;;;;;6.60;1.67;;;;;;;9.02;83.65;101018.25;5088974;28;20028;-91
2022/11/25 05:25:52;;;;;;;4.47;1.50;;;;;;;8.97;83.76;101016.66;5090359;28;20073;-91
2022/11/25 05:28:17;;;;;;;4.40;1.25;;;;;;;8.90;83.51;101008.91;5078760;28;20030;-90
2022/11/25 05:30:44;;;;;;;7.07;1.70;;;;;;;8.87;83.88;101016.06;5080630;28;20102;-91
2022/11/25 05:33:09;;;;;;;5.10;1.33;;;;;;;8.86;84.19;101016.97;5078399;28;20054;-90
2022/11/25 05:35:34;;;;;;;7.07;1.85;;;;;;;8.83;84.59;101027.63;5068407;28;20048;-91
2022/11/25 05:38:02;;;;;;;4.50;1.38;;;;;;;8.82;84.17;101015.34;5063558;28;20032;-91
2022/11/25 05:40:28;;;;;;;7.63;1.70;;;;;;;8.80;84.56;101022.44;5062010;28;20040;-91
2022/11/25 05:42:53;;;;;;;8.27;2.22;;;;;;;8.85;84.38;101031.91;5071319;28;20027;-90
2022/11/25 05:45:18;;;;;;;3.83;1.33;;;;;;;8.83;84.33;101012.66;5086661;28;20479;-90
2022/11/25 05:47:43;;;;;;;6.55;1.77;;;;;;;8.84;84.51;101024.94;5068018;28;20051;-90
2022/11/25 05:50:09;;;;;;;6.43;1.60;;;;;;;8.92;84.08;101027.34;5083509;28;20085;-90
2022/11/25 05:52:34;;;;;;;6.00;1.88;;;;;;;8.87;84.59;101034.53;5084014;28;20020;-90
2022/11/25 05:54:59;;;;;;;6.43;1.75;;;;;;;8.85;84.57;101038.97;5087841;28;20024;-90
2022/11/25 05:57:25;;;;;;;7.03;2.17;;;;;;;8.80;84.41;101041.75;5071249;28;20016;-90
2022/11/25 05:59:50;;;;;;;6.50;1.52;;;;;;;8.85;83.90;101038.97;5085078;28;20395;-90
2022/11/25 06:02:15;;;;;;;6.63;1.55;;;;;;;8.78;84.73;101037.44;5089153;28;20039;-90
2022/11/25 06:04:40;;;;;;;5.07;2.00;;;;;;;8.74;84.48;101041.06;5084964;28;20074;-90
2022/11/25 06:07:06;;;;;;;10.45;1.90;;;;;;;8.69;84.45;101044.69;5072327;28;20032;-90
2022/11/25 06:09:31;;;;;;;11.73;2.40;;;;;;;9.06;83.26;101043.59;5072618;28;20500;-90
2022/11/25 06:11:57;;;;;;;4.97;1.67;;;;;;;8.68;84.50;101050.03;5071487;28;20024;-90
2022/11/25 06:14:22;;;;;;;9.13;2.10;;;;;;;8.63;84.89;101052.81;5085900;28;20487;-90
2022/11/25 06:16:47;;;;;;;7.43;2.00;;;;;;;8.68;85.07;101065.84;5086929;28;20034;-90
2022/11/25 06:19:12;;;;;;;5.22;1.40;;;;;;;8.59;84.90;101056.41;5092307;28;20387;-90
2022/11/25 06:21:38;;;;;;;3.78;1.55;;;;;;;8.60;84.93;101058.16;5075360;28;20077;-90
2022/11/25 06:24:03;;;;;;;5.20;1.38;;;;;;;8.60;84.78;101062.56;5069077;28;20028;-90
2022/11/25 06:26:29;;;;;;;6.57;1.88;;;;;;;8.55;84.62;101056.56;5093095;28;20027;-90
2022/11/25 06:28:54;;;;;;;6.50;2.30;;;;;;;8.53;85.36;101076.78;5092793;28;20509;-90
2022/11/25 06:31:23;;;;;;;5.70;1.98;;;;;;;8.46;85.65;101067.34;5092360;28;20028;-91
2022/11/25 06:33:50;;;;;;;5.22;2.10;;;;;;;8.50;85.30;101074.25;5090612;28;20435;-90
2022/11/25 06:36:18;;;;;;;6.68;2.20;;;;;;;8.48;85.73;101079.56;5088659;28;20028;-91
2022/11/25 06:38:44;;;;;;;5.88;2.17;;;;;;;8.32;85.26;101059.78;5091205;28;20487;-90
2022/11/25 06:41:09;;;;;;;9.63;2.10;;;;;;;8.40;85.13;101092.09;5074057;28;20270;-90
2022/11/25 06:43:34;;;;;;;6.93;2.20;;;;;;;8.30;85.86;101083.56;5091859;28;20020;-90
2022/11/25 06:46:04;;;;;;;7.22;2.47;;;;;;;8.36;85.97;101101.84;5075254;28;20020;-90
2022/11/25 06:48:30;;;;;;;9.60;2.30;;;;;;;8.33;86.28;101099.25;5071107;28;20106;-90
2022/11/25 06:51:00;;;;;;;10.18;2.83;;;;;;;8.29;85.83;101096.75;5089705;28;20063;-90
2022/11/25 06:53:26;;;;;;;8.57;2.70;;;;;;;8.27;85.62;101107.31;5083673;28;20020;-90
2022/11/25 06:56:11;;;;;;;6.82;2.30;;;;;;;8.25;86.16;101103.00;5070791;28;20047;-90
2022/11/25 06:58:37;;;;;;;7.78;2.63;;;;;;;8.24;86.32;101110.03;5069276;28;20491;-90
2022/11/25 07:01:11;;;;;;;6.93;2.22;;;;;;;8.13;86.24;101094.53;5084727;28;20054;-90
2022/11/25 07:03:37;;;;;;;12.75;3.08;;;;;;;8.16;86.75;101110.25;5089900;28;20024;-90
2022/11/25 07:06:03;;;;;;;8.75;2.80;;;;;;;8.14;85.61;101113.81;5074695;28;20036;-90
2022/11/25 07:08:29;;;;;;;10.85;3.10;;;;;;;8.10;85.75;101128.81;5072771;28;20016;-90
2022/11/25 07:11:00;;;;;;;8.77;3.28;;;;;;;8.10;86.72;101126.19;5075132;28;20043;-90
2022/11/25 07:13:25;;;;;;;8.38;3.00;;;;;;;8.03;86.23;101121.13;5090688;28;20019;-90
2022/11/25 07:15:51;;;;;;;4.80;2.55;;;;;;;8.08;86.21;101130.66;5085490;28;20042;-91
2022/11/25 07:18:16;;;;;;;7.55;2.83;;;;;;;7.99;86.26;101130.88;5074848;28;20045;-90
2022/11/25 07:20:42;;;;;;;9.43;2.85;;;;;;;7.99;85.70;101138.78;5067824;28;20020;-90
2022/11/25 07:23:07;;;;;;;7.57;2.60;;;;;;;7.95;85.91;101147.63;5072360;28;20517;-90
2022/11/25 07:25:32;;;;;;;9.68;2.90;;;;;;;7.98;86.08;101155.47;5070088;28;20383;-91
2022/11/25 07:27:58;;;;;;;8.48;2.95;;;;;;;8.02;85.71;101157.13;5060478;28;20028;-90
2022/11/25 07:30:24;;;;;;;8.32;3.20;;;;;;;8.10;85.80;101160.41;5080019;28;20028;-90
2022/11/25 07:32:49;;;;;;;10.55;3.20;;;;;;;7.85;85.56;101152.25;5082784;28;20032;-91
2022/11/25 07:35:15;;;;;;;8.27;3.13;;;;;;;7.84;85.93;101155.81;5068684;28;20051;-90
2022/11/25 07:37:40;;;;;;;11.82;3.22;;;;;;;7.93;86.40;101175.78;5081562;28;20085;-90
2022/11/25 07:40:06;;;;;;;7.57;3.13;;;;;;;8.04;85.25;101171.13;5085026;28;20028;-90
2022/11/25 07:42:32;;;;;;;10.30;3.55;;;;;;;8.10;86.02;101176.22;5071120;28;20032;-90
2022/11/25 07:44:57;;;;;;;6.18;3.00;;;;;;;8.16;86.12;101186.63;5083898;28;20475;-90
2022/11/25 07:47:24;;;;;;;11.18;2.83;;;;;;;8.16;85.45;101191.91;5080898;28;21400;-91
2022/11/25 07:49:49;;;;;;;7.05;2.95;;;;;;;8.16;85.09;101197.16;5080065;28;20038;-90
2022/11/25 07:52:14;;;;;;;8.27;2.75;;;;;;;8.22;84.46;101205.81;5063920;28;20028;-90
2022/11/25 07:54:40;;;;;;;9.05;2.97;;;;;;;8.28;84.97;101219.69;5076451;28;20077;-90
2022/11/25 07:57:05;;;;;;;7.63;2.65;;;;;;;8.30;84.75;101217.00;5075995;28;20494;-90
2022/11/25 07:59:30;;;;;;;9.82;3.13;;;;;;;8.24;85.61;101212.75;5063926;28;20023;-91
2022/11/25 08:01:56;;;;;;;8.85;2.78;;;;;;;8.30;85.01;101223.16;5077856;28;20495;-90
2022/11/25 08:04:21;;;;;;;12.05;3.53;;;;;;;8.27;84.77;101220.59;5077949;28;20030;-90
2022/11/25 08:06:49;;;;;;;9.15;3.08;;;;;;;8.27;85.89;101231.13;5069544;28;20069;-90
2022/11/25 08:09:18;;;;;;;10.55;2.83;;;;;;;8.33;85.22;101232.75;5056733;28;20043;-90
2022/11/25 08:11:44;;;;;;;9.07;3.30;;;;;;;8.37;85.04;101244.97;5078660;28;20032;-91
2022/11/25 08:14:09;;;;;;;12.18;3.05;;;;;;;8.41;84.63;101244.00;5062615;28;20119;-90
2022/11/25 08:16:36;;;;;;;9.68;3.08;;;;;;;8.45;85.04;101245.66;5075462;28;20112;-91
2022/11/25 08:19:04;;;;;;;7.18;2.80;;;;;;;8.60;84.34;101255.81;5078614;28;20056;-91
2022/11/25 08:21:29;;;;;;;8.88;3.15;;;;;;;8.63;84.66;101246.97;5076032;28;20449;-90
2022/11/25 08:23:55;;;;;;;8.15;3.30;;;;;;;8.68;84.21;101247.72;5080834;28;20051;-91
2022/11/25 08:26:24;;;;;;;10.77;3.17;;;;;;;8.84;83.98;101256.06;5071148;28;20067;-90
2022/11/25 08:28:50;;;;;;;9.00;3.47;;;;;;;8.79;83.93;101250.06;5067645;28;20127;-90
2022/11/25 08:31:22;;;;;;;9.57;3.70;;;;;;;8.96;83.84;101263.66;5078661;28;20111;-91
2022/11/25 08:33:48;;;;;;;6.90;2.67;;;;;;;9.13;82.79;101260.56;5066368;28;20574;-90
2022/11/25 08:36:15;;;;;;;10.90;2.83;;;;;;;9.18;82.52;101270.06;5078492;28;20077;-90
2022/11/25 08:38:41;;;;;;;5.10;2.60;;;;;;;9.13;82.58;101261.41;5061832;28;20032;-89
2022/11/25 08:41:11;;;;;;;8.55;3.08;;;;;;;9.13;82.91;101269.34;5088422;28;20047;-90
2022/11/25 08:43:37;;;;;;;6.32;2.10;;;;;;;9.12;82.85;101264.97;5076096;28;20531;-89
2022/11/25 08:46:07;;;;;;;10.82;3.03;;;;;;;9.14;82.88;101268.44;5061385;28;20048;-89
2022/11/25 08:48:33;;;;;;;6.13;2.20;;;;;;;9.23;82.29;101258.53;5082826;28;20039;-89
2022/11/25 08:50:58;;;;;;;7.55;2.78;;;;;;;9.28;82.02;101261.91;5082078;28;20032;-89
2022/11/25 08:53:23;;;;;;;6.60;2.60;;;;;;;9.21;82.31;101261.22;5087226;28;20503;-89
2022/11/25 08:55:48;;;;;;;7.32;2.55;;;;;;;9.27;82.17;101254.91;5077170;28;20035;-90
2022/11/25 08:58:14;;;;;;;9.38;2.72;;;;;;;9.34;82.06;101256.47;5080206;28;20024;-90
2022/11/25 09:00:41;;;;;;;5.97;2.15;;;;;;;9.40;82.11;101264.22;5082310;28;20058;-89
2022/11/25 09:03:06;;;;;;;8.05;2.70;;;;;;;9.44;81.29;101282.53;5081187;28;20447;-90
2022/11/25 09:05:36;;;;;;;8.25;3.08;;;;;;;9.75;80.19;101280.81;5059812;28;20027;-89
2022/11/25 09:08:03;;;;;;;13.23;2.85;;;;;;;10.17;79.77;101290.06;5086134;28;20049;-89
2022/11/25 09:10:29;;;;;;;9.25;2.60;;;;;;;11.23;76.23;101282.09;5089123;28;20471;-89
2022/11/25 09:12:54;;;;;;;6.90;2.17;;;;;;;12.52;71.72;101287.81;5077823;28;20023;-89
2022/11/25 09:15:19;;;;;;;6.93;2.30;;;;;;;13.51;67.17;101280.00;5087683;28;20209;-89
2022/11/25 09:17:45;;;;;;;8.77;2.55;;;;;;;14.49;64.29;101286.03;5087269;28;20027;-88
2022/11/25 09:20:10;;;;;;;6.80;2.50;;;;;;;14.92;61.64;101291.84;5089205;28;20475;-89
2022/11/25 09:22:36;;;;;;;9.70;2.40;;;;;;;15.51;59.58;101294.06;5071717;28;20027;-89
2022/11/25 09:25:01;;;;;;;5.43;1.80;;;;;;;15.94;57.76;101298.91;5085153;28;20028;-88
2022/11/25 09:27:26;;;;;;;8.55;2.22;;;;;;;16.46;57.65;101306.63;5085833;28;20123;-88
2022/11/25 09:29:52;;;;;;;6.05;2.30;;;;;;;16.78;56.03;101303.00;5075688;28;20031;-88
2022/11/25 09:32:17;;;;;;;4.40;1.70;;;;;;;16.63;55.47;101314.53;5059948;28;20031;-88
2022/11/25 09:34:42;;;;;;;5.45;2.08;;;;;;;16.92;54.62;101312.84;5073753;28;20120;-88
2022/11/25 09:37:08;;;;;;;6.35;2.42;;;;;;;17.25;54.31;101309.13;5078806;28;20046;-88
2022/11/25 09:39:34;;;;;;;8.75;2.10;;;;;;;17.59;53.13;101323.97;5088161;28;20020;-87
2022/11/25 09:48:29;;;;;;;7.10;2.22;;;;;;;20.25;48.13;101334.72;5073727;28;20526;-88
2022/11/25 09:51:11;;;;;;;6.70;2.10;;;;;;;20.29;46.47;101347.81;5075179;28;20024;-88
2022/11/25 09:53:52;;;;;;;5.00;1.95;;;;;;;20.25;45.51;101350.84;5066943;28;20019;-88
2022/11/25 09:56:40;;;;;;;11.52;2.40;;;;;;;20.19;48.23;101348.56;5061845;28;20056;-87
2022/11/25 09:59:19;;;;;;;8.88;2.70;;;;;;;20.09;44.82;101361.81;5074888;28;20050;-87
2022/11/25 10:01:47;;;;;;;8.90;2.45;;;;;;;20.19;44.80;101352.16;5068292;28;20390;-88
2022/11/25 10:04:18;;;;;;;6.55;2.20;;;;;;;20.55;45.33;101339.69;5086955;28;20020;-88
2022/11/25 10:06:50;;;;;;;6.72;2.55;;;;;;;20.53;43.29;101360.44;5070693;28;20016;-88
2022/11/25 10:09:21;;;;;;;9.05;2.30;;;;;;;20.32;45.88;101349.41;5088063;28;20024;-88
2022/11/25 10:11:57;;;;;;;6.82;2.28;;;;;;;21.39;44.25;101361.06;5081802;28;20088;-88
2022/11/25 10:14:45;;;;;;;6.72;2.10;;;;;;;21.50;44.08;101357.56;5086638;28;20024;-88
2022/11/25 10:17:33;;;;;;;7.82;2.33;;;;;;;22.32;44.83;101368.13;5088646;28;20036;-88
2022/11/25 10:20:04;;;;;;;6.78;2.40;;;;;;;22.88;41.24;101374.22;5061697;28;20035;-88
2022/11/25 10:22:32;;;;;;;7.03;2.55;;;;;;;23.28;39.20;101384.38;5083198;28;20113;-88
2022/11/25 10:25:12;;;;;;;6.88;2.40;;;;;;;23.61;41.19;101393.28;5077751;28;20021;-88
2022/11/25 10:28:00;;;;;;;5.57;2.20;;;;;;;23.74;40.97;101401.22;5059276;28;20123;-88
2022/11/25 10:30:43;;;;;;;7.72;1.98;;;;;;;24.16;39.74;101396.59;5073288;28;20077;-88
2022/11/25 10:33:19;;;;;;;5.78;1.92;;;;;;;24.25;39.47;101393.06;5082573;28;20390;-89
2022/11/25 10:35:52;;;;;;;6.93;1.98;;;;;;;23.77;37.10;101390.97;5058129;28;20044;-88
2022/11/25 10:38:25;;;;;;;9.57;2.88;;;;;;;23.36;36.60;101403.50;5062901;28;20053;-87
2022/11/25 10:40:53;;;;;;;8.48;2.40;;;;;;;23.41;36.83;101412.03;5069598;28;20028;-88
2022/11/25 10:43:18;;;;;;;5.47;2.30;;;;;;;;;;5062988;28;20026;-88
2022/11/25 10:45:51;;;;;;;7.30;2.23;;;;;;;22.83;38.49;101410.66;5065244;28;20032;-88
2022/11/25 10:48:35;;;;;;;7.20;2.50;;;;;;;23.10;39.37;101419.16;5074085;28;20344;-88
2022/11/25 10:51:24;;;;;;;7.05;2.38;;;;;;;23.32;38.43;101420.91;5056721;28;20058;-88
2022/11/25 10:54:21;;;;;;;8.00;2.03;;;;;;;23.48;36.41;101422.31;5064258;28;20105;-88
2022/11/25 10:56:55;;;;;;;4.47;1.80;;;;;;;23.05;37.82;101415.16;5062578;28;20042;-90
2022/11/25 10:59:27;;;;;;;10.98;3.53;;;;;;;23.03;37.77;101417.09;5076062;28;20095;-88
2022/11/25 11:02:05;;;;;;;;;;;;;;;23.31;35.98;101429.13;5084113;28;20032;-89
2022/11/25 11:04:33;;;;;;;6.25;1.83;;;;;;;23.10;36.22;101429.09;5088256;28;20323;-88
2022/11/25 11:07:08;;;;;;;7.55;2.17;;;;;;;22.66;37.99;101430.88;5092552;28;20440;-88
2022/11/25 11:09:41;;;;;;;4.70;2.15;;;;;;;23.11;35.86;101431.66;5094401;28;20475;-88
2022/11/25 11:12:19;;;;;;;6.55;2.10;;;;;;;22.31;38.30;101431.91;5082486;28;20441;-88
2022/11/25 11:14:44;;;;;;;8.40;2.10;;;;;;;22.18;38.92;101431.19;5064272;28;20105;-89
2022/11/25 11:17:31;;;;;;;5.93;2.15;;;;;;;22.95;39.16;101435.78;5084509;28;20488;-89
2022/11/25 11:20:24;;;;;;;7.20;2.47;;;;;;;22.66;37.98;101445.25;5078749;28;20067;-89
2022/11/25 11:23:10;;;;;;;9.10;2.15;;;;;;;22.36;38.78;101445.03;5065346;28;20407;-89
2022/11/25 11:25:38;;;;;;;6.10;2.08;;;;;;;22.25;38.24;101458.50;5080620;28;20019;-89
2022/11/25 11:28:22;;;;;;;7.65;2.30;;;;;;;23.47;38.02;101467.34;5085409;28;20479;-88
2022/11/25 11:31:17;;;;;;;7.70;2.15;;;;;;;24.21;36.90;101466.44;5070272;28;20770;-88
2022/11/25 11:33:45;;;;;;;6.45;1.90;;;;;;;24.67;33.27;101472.19;5078204;28;20046;-89
2022/11/25 11:36:22;;;;;;;7.68;2.15;;;;;;;23.08;35.72;101468.81;5082761;28;20092;-89
2022/11/25 11:39:00;;;;;;;7.03;1.77;;;;;;;23.01;35.42;101473.03;5071072;28;20032;-91
2022/11/25 11:41:41;;;;;;;4.72;1.83;;;;;;;23.15;35.08;101475.44;5085340;28;20024;-91
2022/11/25 11:44:31;;;;;;;7.80;1.98;;;;;;;23.26;35.91;101478.06;5054941;28;20028;-92
2022/11/25 11:47:15;;;;;;;6.55;1.80;;;;;;;23.80;35.64;101478.97;5013671;28;20131;-91
2022/11/25 11:50:10;;;;;;;5.38;1.50;;;;;;;23.95;34.63;101493.00;5090312;28;20023;-91
2022/11/25 11:53:04;;;;;;;6.82;1.70;;;;;;;23.77;34.40;101492.72;5085194;28;20027;-91
2022/11/25 11:55:54;;;;;;;3.78;1.63;;;;;;;24.35;32.95;101488.53;5088753;28;20660;-90
2022/11/25 11:58:32;;;;;;;5.47;1.98;;;;;;;24.41;34.38;101490.72;5081126;28;20519;-90
2022/11/25 12:01:09;;;;;;;6.65;1.60;;;;;;;24.78;32.55;101494.69;5088003;28;20062;-90
2022/11/25 12:03:42;;;;;;;7.82;1.98;;;;;;;24.12;33.02;101497.81;5082075;28;20095;-91
2022/11/25 12:06:10;;;;;;;4.38;1.58;;;;;;;23.19;34.28;101486.84;5085000;28;20016;-91
2022/11/25 12:08:41;;;;;;;5.10;1.75;;;;;;;22.85;33.53;101494.97;5065904;28;20479;-92
2022/11/25 12:11:13;;;;;;;5.28;1.60;;;;;;;23.16;35.21;101498.72;5088269;28;20020;-92
2022/11/25 12:13:54;;;;;;;;;;;;;;;23.65;36.31;101495.50;5089880;28;21705;-91
2022/11/25 12:16:47;;;;;;;6.65;1.83;;;;;;;23.57;35.80;101507.91;5085174;28;19920;-92
2022/11/25 12:19:29;;;;;;;6.07;1.70;;;;;;;23.52;34.52;101516.38;5084403;28;20032;-92
2022/11/25 12:22:05;;;;;;;6.75;2.00;;;;;;;23.10;34.67;101510.88;5080742;28;20058;-92
2022/11/25 12:24:43;;;;;;;4.03;1.65;;;;;;;22.90;35.41;101504.44;5080518;28;20020;-92
2022/11/25 12:27:15;;;;;;;7.93;1.63;;;;;;;22.20;36.13;101518.13;5081076;28;20028;-91